createdAt,value
2018-12-31T00:02:04.194Z,81.62
2018-12-31T00:04:33.625Z,81.24
2018-12-31T00:07:02.742Z,78.64
2018-12-31T00:09:31.865Z,78.52
2018-12-31T00:12:06.403Z,78.30
2018-12-31T00:14:37.091Z,77.12
2018-12-31T00:17:06.259Z,76.92
2018-12-31T00:19:35.551Z,77.83
2018-12-31T00:22:04.880Z,79.31
2018-12-31T00:24:34.010Z,80.42
2018-12-31T00:27:03.146Z,81.49
2018-12-31T00:29:36.160Z,80.92
2018-12-31T00:32:11.355Z,80.24
2018-12-31T00:34:43.000Z,80.98
2018-12-31T00:37:18.156Z,80.63
2018-12-31T00:39:44.568Z,82.90
2018-12-31T00:42:13.869Z,82.52
2018-12-31T00:44:47.464Z,81.34
2018-12-31T00:47:20.207Z,81.02
2018-12-31T00:49:51.200Z,82.16
2018-12-31T00:52:20.395Z,83.71
2018-12-31T00:54:50.247Z,83.32
2018-12-31T00:57:23.901Z,83.31
2018-12-31T00:59:53.029Z,82.50
2018-12-31T01:02:25.956Z,81.29
2018-12-31T01:04:56.410Z,82.14
2018-12-31T01:07:30.785Z,81.86
2018-12-31T01:10:00.202Z,82.20
2018-12-31T01:12:29.335Z,83.86
2018-12-31T01:15:00.167Z,84.38
2018-12-31T01:17:29.276Z,82.38
2018-12-31T01:19:59.748Z,81.16
2018-12-31T01:22:31.988Z,80.22
2018-12-31T01:25:04.107Z,79.60
2018-12-31T01:27:34.103Z,81.07
2018-12-31T01:30:07.046Z,81.94
2018-12-31T01:32:36.233Z,81.13
2018-12-31T01:35:05.710Z,81.55
2018-12-31T01:37:36.309Z,83.34
2018-12-31T01:40:06.149Z,84.25
2018-12-31T01:42:35.302Z,85.01
2018-12-31T01:45:05.024Z,83.20
2018-12-31T01:47:37.891Z,81.73
2018-12-31T01:50:07.288Z,80.26
2018-12-31T01:52:43.713Z,78.54
2018-12-31T01:55:17.231Z,76.81
2018-12-31T01:57:47.716Z,76.99
2018-12-31T02:00:22.111Z,77.02
2018-12-31T02:02:52.548Z,79.17
2018-12-31T02:05:24.486Z,81.69
2018-12-31T02:07:54.707Z,81.75
2018-12-31T02:10:24.906Z,81.81
2018-12-31T02:12:54.054Z,82.69
2018-12-31T02:15:42.458Z,83.52
2018-12-31T02:18:11.723Z,83.98
2018-12-31T02:20:42.446Z,83.68
2018-12-31T02:23:11.597Z,82.20
2018-12-31T02:25:42.412Z,81.74
2018-12-31T02:28:14.998Z,82.61
2018-12-31T02:30:44.290Z,81.71
2018-12-31T02:33:20.192Z,82.55
2018-12-31T02:35:53.497Z,83.52
2018-12-31T02:38:25.504Z,83.34
2018-12-31T02:40:54.730Z,84.21
2018-12-31T02:43:32.157Z,83.42
2018-12-31T02:46:02.985Z,83.84
2018-12-31T02:48:32.176Z,83.86
2018-12-31T02:51:01.287Z,84.73
2018-12-31T02:53:30.403Z,84.15
2018-12-31T02:55:59.535Z,82.08
2018-12-31T02:58:30.317Z,80.81
2018-12-31T03:01:00.996Z,81.08
2018-12-31T03:03:33.934Z,83.49
2018-12-31T03:06:07.374Z,83.58
2018-12-31T03:08:36.615Z,82.69
2018-12-31T03:11:05.748Z,80.66
2018-12-31T03:13:34.865Z,80.32
2018-12-31T03:16:04.023Z,82.09
2018-12-31T03:18:33.127Z,81.05
2018-12-31T03:21:02.267Z,82.59
2018-12-31T03:23:35.875Z,83.33
2018-12-31T03:26:05.093Z,84.21
2018-12-31T03:28:34.300Z,83.59
2018-12-31T03:31:03.420Z,82.35
2018-12-31T03:33:32.544Z,81.36
2018-12-31T03:36:02.759Z,80.65
2018-12-31T03:38:31.895Z,80.83
2018-12-31T03:41:01.535Z,80.60
2018-12-31T03:43:30.777Z,80.69
2018-12-31T03:46:04.088Z,80.21
2018-12-31T03:48:42.401Z,81.05
2018-12-31T03:51:22.171Z,80.81
2018-12-31T03:53:53.829Z,82.09
2018-12-31T03:56:23.244Z,80.97
2018-12-31T03:58:52.380Z,82.67
2018-12-31T04:01:23.694Z,82.64
2018-12-31T04:03:53.055Z,82.32
2018-12-31T04:06:22.602Z,82.25
2018-12-31T04:08:54.181Z,83.86
2018-12-31T04:11:23.362Z,83.82
2018-12-31T04:13:53.581Z,84.25
2018-12-31T04:16:24.302Z,82.98
2018-12-31T04:18:54.719Z,83.48
2018-12-31T04:21:25.358Z,81.74
2018-12-31T04:23:54.523Z,81.77
2018-12-31T04:26:24.940Z,82.15
2018-12-31T04:28:54.074Z,79.35
2018-12-31T04:31:25.691Z,81.01
2018-12-31T04:33:54.807Z,80.97
2018-12-31T04:36:25.861Z,80.90
2018-12-31T04:38:54.933Z,80.09
2018-12-31T04:41:24.105Z,82.31
2018-12-31T04:43:55.055Z,83.70
2018-12-31T04:46:26.217Z,83.18
2018-12-31T04:48:55.163Z,82.69
2018-12-31T04:51:24.341Z,82.96
2018-12-31T04:53:53.435Z,81.92
2018-12-31T04:56:24.551Z,81.26
2018-12-31T04:58:54.859Z,80.65
2018-12-31T05:01:26.430Z,81.02
2018-12-31T05:03:55.666Z,82.25
2018-12-31T05:06:24.797Z,83.47
2018-12-31T05:08:59.181Z,82.84
2018-12-31T05:11:28.315Z,83.95
2018-12-31T05:13:57.755Z,83.42
2018-12-31T05:16:27.051Z,84.95
2018-12-31T05:19:00.782Z,85.04
2018-12-31T05:21:29.942Z,86.15
2018-12-31T05:23:59.076Z,85.40
2018-12-31T05:26:30.312Z,85.29
2018-12-31T05:29:01.051Z,84.56
2018-12-31T05:31:30.171Z,85.15
2018-12-31T05:34:01.365Z,82.94
2018-12-31T05:36:33.996Z,84.09
2018-12-31T05:39:03.780Z,82.10
2018-12-31T05:41:34.680Z,80.64
2018-12-31T05:44:06.656Z,83.28
2018-12-31T05:46:36.920Z,83.54
2018-12-31T05:49:07.571Z,83.84
2018-12-31T05:51:36.694Z,84.54
2018-12-31T05:54:05.854Z,84.42
2018-12-31T05:56:34.982Z,85.05
2018-12-31T05:59:08.451Z,85.24
2018-12-31T06:01:39.866Z,85.41
2018-12-31T06:04:13.111Z,85.50
2018-12-31T06:06:43.292Z,84.92
2018-12-31T06:09:13.809Z,83.47
2018-12-31T06:11:46.401Z,82.47
2018-12-31T06:14:19.161Z,81.92
2018-12-31T06:16:48.676Z,81.89
2018-12-31T06:19:25.321Z,80.49
2018-12-31T06:21:55.923Z,81.28
2018-12-31T06:24:27.160Z,80.32
2018-12-31T06:27:02.079Z,81.44
2018-12-31T06:29:35.918Z,83.72
2018-12-31T06:32:05.052Z,82.03
2018-12-31T06:34:34.685Z,81.27
2018-12-31T06:37:04.256Z,82.78
2018-12-31T06:39:39.009Z,81.04
2018-12-31T06:42:08.149Z,79.76
2018-12-31T06:44:46.203Z,79.26
2018-12-31T06:47:18.720Z,81.50
2018-12-31T06:49:47.986Z,81.20
2018-12-31T06:52:17.207Z,81.15
2018-12-31T06:54:48.234Z,83.05
2018-12-31T06:57:25.503Z,81.72
2018-12-31T06:59:52.440Z,81.35
2018-12-31T07:02:22.681Z,81.44
2018-12-31T07:04:56.091Z,80.30
2018-12-31T07:07:25.532Z,80.56
2018-12-31T07:09:54.724Z,80.33
2018-12-31T07:12:24.939Z,79.95
2018-12-31T07:14:55.645Z,81.46
2018-12-31T07:17:24.787Z,81.98
2018-12-31T07:19:53.983Z,80.66
2018-12-31T07:22:24.830Z,81.17
2018-12-31T07:24:53.954Z,81.15
2018-12-31T07:27:24.207Z,81.52
2018-12-31T07:29:56.373Z,81.96
2018-12-31T07:32:28.259Z,82.70
2018-12-31T07:34:58.989Z,81.72
2018-12-31T07:37:28.154Z,80.61
2018-12-31T07:39:57.286Z,80.19
2018-12-31T07:42:27.867Z,81.88
2018-12-31T07:44:59.779Z,82.20
2018-12-31T07:47:28.912Z,82.82
2018-12-31T07:50:01.349Z,82.70
2018-12-31T07:52:30.513Z,83.15
2018-12-31T07:54:59.679Z,80.93
2018-12-31T07:57:30.066Z,83.84
2018-12-31T08:00:03.426Z,84.03
2018-12-31T08:02:37.071Z,83.20
2018-12-31T08:05:10.371Z,82.14
2018-12-31T08:07:42.849Z,82.94
2018-12-31T08:10:11.974Z,84.60
2018-12-31T08:12:42.042Z,85.13
2018-12-31T08:15:11.153Z,85.61
2018-12-31T08:17:42.293Z,83.69
2018-12-31T08:20:11.222Z,85.60
2018-12-31T08:22:41.169Z,86.97
2018-12-31T08:25:14.779Z,86.44
2018-12-31T08:27:45.346Z,83.13
2018-12-31T08:30:14.509Z,83.46
2018-12-31T08:32:43.628Z,83.83
2018-12-31T08:35:14.598Z,84.86
2018-12-31T08:37:43.633Z,86.38
2018-12-31T08:40:13.903Z,84.92
2018-12-31T08:42:44.157Z,84.29
2018-12-31T08:45:13.748Z,84.25
2018-12-31T08:47:42.928Z,85.72
2018-12-31T08:50:12.336Z,87.47
2018-12-31T08:52:41.533Z,85.92
2018-12-31T08:55:16.272Z,83.86
2018-12-31T08:57:47.193Z,87.17
2018-12-31T09:00:16.357Z,85.09
2018-12-31T09:02:45.493Z,82.87
2018-12-31T09:05:14.647Z,84.25
2018-12-31T09:07:46.833Z,84.61
2018-12-31T09:10:18.915Z,83.96
2018-12-31T09:12:49.882Z,83.91
2018-12-31T09:15:22.403Z,83.00
2018-12-31T09:17:51.606Z,82.87
2018-12-31T09:20:20.707Z,84.35
2018-12-31T09:22:49.843Z,83.45
2018-12-31T09:25:19.078Z,83.29
2018-12-31T09:27:48.223Z,83.05
2018-12-31T09:30:18.862Z,82.51
2018-12-31T09:32:48.152Z,85.41
2018-12-31T09:35:18.876Z,84.60
2018-12-31T09:37:48.098Z,83.34
2018-12-31T09:40:17.235Z,84.15
2018-12-31T09:42:46.436Z,82.32
2018-12-31T09:45:15.551Z,84.07
2018-12-31T09:47:46.241Z,84.45
2018-12-31T09:50:15.895Z,86.07
2018-12-31T09:52:47.509Z,84.76
2018-12-31T09:55:17.837Z,84.73
2018-12-31T09:57:55.521Z,81.68
2018-12-31T10:00:24.732Z,78.22
2018-12-31T10:02:53.834Z,83.76
2018-12-31T10:05:22.963Z,84.47
2018-12-31T10:07:52.264Z,85.93
2018-12-31T10:10:23.576Z,85.84
2018-12-31T10:12:52.810Z,84.89
2018-12-31T10:15:22.858Z,86.16
2018-12-31T10:17:52.041Z,85.33
2018-12-31T10:20:21.156Z,83.95
2018-12-31T10:22:50.365Z,85.93
2018-12-31T10:25:19.466Z,83.73
2018-12-31T10:27:49.723Z,84.31
2018-12-31T10:30:19.253Z,81.15
2018-12-31T10:32:49.819Z,82.54
2018-12-31T10:35:18.944Z,83.39
2018-12-31T10:37:50.536Z,82.68
2018-12-31T10:40:19.655Z,83.50
2018-12-31T10:42:49.757Z,80.05
2018-12-31T10:45:19.680Z,79.90
2018-12-31T10:47:48.815Z,83.27
2018-12-31T10:50:18.022Z,83.43
2018-12-31T10:52:48.385Z,82.13
2018-12-31T10:55:19.258Z,84.00
2018-12-31T10:57:50.281Z,83.23
2018-12-31T11:00:22.275Z,83.84
2018-12-31T11:02:51.854Z,82.92
2018-12-31T11:05:34.661Z,84.55
2018-12-31T11:08:10.621Z,82.58
2018-12-31T11:10:40.046Z,83.01
2018-12-31T11:13:09.419Z,84.00
2018-12-31T11:15:38.496Z,84.05
2018-12-31T11:18:09.829Z,83.15
2018-12-31T11:20:39.473Z,83.12
2018-12-31T11:23:08.620Z,80.70
2018-12-31T11:25:37.898Z,81.15
2018-12-31T11:28:10.797Z,83.50
2018-12-31T11:30:39.884Z,83.19
2018-12-31T11:33:10.462Z,86.28
2018-12-31T11:35:42.052Z,84.92
2018-12-31T11:38:11.230Z,84.23
2018-12-31T11:40:40.300Z,83.14
2018-12-31T11:43:09.419Z,85.14
2018-12-31T11:45:38.488Z,87.20
2018-12-31T11:48:08.138Z,87.89
2018-12-31T11:50:37.277Z,87.56
2018-12-31T11:53:08.294Z,84.95
2018-12-31T11:55:37.415Z,84.74
2018-12-31T11:58:07.543Z,85.00
2018-12-31T12:00:36.696Z,86.93
2018-12-31T12:03:10.266Z,86.63
2018-12-31T12:05:39.392Z,87.36
2018-12-31T12:08:17.580Z,84.41
2018-12-31T12:10:49.834Z,84.09
2018-12-31T12:13:21.060Z,82.26
2018-12-31T12:15:49.902Z,82.83
2018-12-31T12:18:18.988Z,82.56
2018-12-31T12:20:49.781Z,81.85
2018-12-31T12:23:24.650Z,83.04
2018-12-31T12:25:55.809Z,81.79
2018-12-31T12:28:25.214Z,84.01
2018-12-31T12:30:54.525Z,83.34
2018-12-31T12:33:24.812Z,82.57
2018-12-31T12:35:56.445Z,81.65
2018-12-31T12:38:27.665Z,80.64
2018-12-31T12:41:02.061Z,78.82
2018-12-31T12:43:36.319Z,79.35
2018-12-31T12:46:13.953Z,80.06
2018-12-31T12:48:46.432Z,79.99
2018-12-31T12:51:15.794Z,81.56
2018-12-31T12:53:45.026Z,82.89
2018-12-31T12:56:14.150Z,84.60
2018-12-31T12:58:43.304Z,83.34
2018-12-31T13:01:17.975Z,80.62
2018-12-31T13:03:47.043Z,81.45
2018-12-31T13:06:16.210Z,80.48
2018-12-31T13:08:48.570Z,79.37
2018-12-31T13:11:18.765Z,78.91
2018-12-31T13:13:51.283Z,80.26
2018-12-31T13:16:20.416Z,81.12
2018-12-31T13:18:49.525Z,79.72
2018-12-31T13:21:19.615Z,79.35
2018-12-31T13:23:54.439Z,80.11
2018-12-31T13:26:23.578Z,80.11
2018-12-31T13:28:52.660Z,77.90
2018-12-31T13:31:22.665Z,78.60
2018-12-31T13:33:51.790Z,79.63
2018-12-31T13:36:21.926Z,74.27
2018-12-31T13:38:51.041Z,74.08
2018-12-31T13:41:21.479Z,73.15
2018-12-31T13:43:50.970Z,73.51
2018-12-31T13:46:20.120Z,74.33
2018-12-31T13:48:49.517Z,75.68
2018-12-31T13:51:23.165Z,75.10
2018-12-31T13:53:52.546Z,77.72
2018-12-31T13:56:23.137Z,79.08
2018-12-31T13:58:55.285Z,77.43
2018-12-31T14:01:24.469Z,78.12
2018-12-31T14:03:53.593Z,76.37
2018-12-31T14:06:22.695Z,72.69
2018-12-31T14:08:52.983Z,73.63
2018-12-31T14:11:23.467Z,71.47
2018-12-31T14:13:57.821Z,74.19
2018-12-31T14:16:32.582Z,74.08
2018-12-31T14:19:01.895Z,78.37
2018-12-31T14:21:31.006Z,76.83
2018-12-31T14:24:03.898Z,74.61
2018-12-31T14:26:33.912Z,74.08
2018-12-31T14:29:07.831Z,70.36
2018-12-31T14:31:36.996Z,74.27
2018-12-31T14:34:06.552Z,75.31
2018-12-31T14:36:35.659Z,76.87
2018-12-31T14:39:09.586Z,77.53
2018-12-31T14:41:39.681Z,78.01
2018-12-31T14:44:09.809Z,78.15
2018-12-31T14:46:39.981Z,78.60
2018-12-31T14:49:09.402Z,79.20
2018-12-31T14:51:41.206Z,80.11
2018-12-31T14:54:12.804Z,82.25
2018-12-31T14:56:41.920Z,82.71
2018-12-31T14:59:11.027Z,83.84
2018-12-31T15:01:40.168Z,83.38
2018-12-31T15:04:10.409Z,81.77
2018-12-31T15:06:40.599Z,82.82
2018-12-31T15:09:13.610Z,84.04
2018-12-31T15:11:44.616Z,84.17
2018-12-31T15:14:19.475Z,81.99
2018-12-31T15:16:49.492Z,80.58
2018-12-31T15:19:19.545Z,80.50
2018-12-31T15:21:48.777Z,78.62
2018-12-31T15:24:19.275Z,80.45
2018-12-31T15:26:54.137Z,79.62
2018-12-31T15:29:25.146Z,78.59
2018-12-31T15:31:56.735Z,77.61
2018-12-31T15:34:25.841Z,77.83
2018-12-31T15:36:55.249Z,74.24
2018-12-31T15:39:27.935Z,73.51
2018-12-31T15:41:57.051Z,76.01
2018-12-31T15:44:26.413Z,75.62
2018-12-31T15:46:55.519Z,77.40
2018-12-31T15:49:24.998Z,77.17
2018-12-31T15:51:54.178Z,78.54
2018-12-31T15:54:23.338Z,77.22
2018-12-31T15:56:53.055Z,78.99
2018-12-31T15:59:22.334Z,78.67
2018-12-31T16:01:51.423Z,78.54
2018-12-31T16:04:21.001Z,79.55
2018-12-31T16:06:53.027Z,79.66
2018-12-31T16:09:23.513Z,80.91
2018-12-31T16:11:52.661Z,79.77
2018-12-31T16:14:21.784Z,82.15
2018-12-31T16:16:50.883Z,83.24
2018-12-31T16:19:21.326Z,82.93
2018-12-31T16:21:50.402Z,82.60
2018-12-31T16:24:19.924Z,82.65
2018-12-31T16:26:55.000Z,79.98
2018-12-31T16:29:24.117Z,79.78
2018-12-31T16:31:53.240Z,77.92
2018-12-31T16:34:22.734Z,80.02
2018-12-31T16:36:53.671Z,81.51
2018-12-31T16:39:24.000Z,82.34
2018-12-31T16:41:54.886Z,84.08
2018-12-31T16:44:24.245Z,83.22
2018-12-31T16:46:56.440Z,82.01
2018-12-31T16:49:30.411Z,82.43
2018-12-31T16:52:05.359Z,80.96
2018-12-31T16:54:43.673Z,80.12
2018-12-31T16:57:12.826Z,77.35
2018-12-31T16:59:41.924Z,75.58
2018-12-31T17:02:12.347Z,74.11
2018-12-31T17:04:44.498Z,72.70
2018-12-31T17:07:18.699Z,71.79
2018-12-31T17:09:47.876Z,71.18
2018-12-31T17:12:17.122Z,71.06
2018-12-31T17:14:46.214Z,71.09
2018-12-31T17:17:16.933Z,70.94
2018-12-31T17:19:48.315Z,70.34
2018-12-31T17:22:17.645Z,70.73
2018-12-31T17:24:46.758Z,70.41
2018-12-31T17:27:21.546Z,69.80
2018-12-31T17:29:50.639Z,69.38
2018-12-31T17:32:20.052Z,69.84
2018-12-31T17:34:50.090Z,71.49
2018-12-31T17:37:26.731Z,71.58
2018-12-31T17:39:55.851Z,71.50
2018-12-31T17:42:24.990Z,71.39
2018-12-31T17:44:54.152Z,71.11
2018-12-31T17:47:24.300Z,71.29
2018-12-31T17:49:54.501Z,71.37
2018-12-31T17:52:23.605Z,71.26
2018-12-31T17:54:55.309Z,70.08
2018-12-31T17:57:30.458Z,70.69
2018-12-31T17:59:59.589Z,70.26
2018-12-31T18:02:29.407Z,71.13
2018-12-31T18:04:58.499Z,72.27
2018-12-31T18:07:27.601Z,72.64
2018-12-31T18:09:56.769Z,74.11
2018-12-31T18:12:27.100Z,75.12
2018-12-31T18:14:57.631Z,75.32
2018-12-31T18:17:26.791Z,76.62
2018-12-31T18:19:55.876Z,77.63
2018-12-31T18:22:25.385Z,73.82
2018-12-31T18:24:59.403Z,72.68
2018-12-31T18:27:28.490Z,72.17
2018-12-31T18:30:00.270Z,71.58
2018-12-31T18:32:29.376Z,73.31
2018-12-31T18:35:02.263Z,72.66
2018-12-31T18:37:31.507Z,71.33
2018-12-31T18:40:02.282Z,73.11
2018-12-31T18:42:31.863Z,74.70
2018-12-31T18:45:03.885Z,73.78
2018-12-31T18:47:35.813Z,75.54
2018-12-31T18:50:05.730Z,73.36
2018-12-31T18:52:36.524Z,73.27
2018-12-31T18:55:10.365Z,72.03
2018-12-31T18:57:39.729Z,73.03
2018-12-31T19:00:11.822Z,72.32
2018-12-31T19:02:44.841Z,71.75
2018-12-31T19:05:13.868Z,70.80
2018-12-31T19:07:43.012Z,69.78
2018-12-31T19:10:12.074Z,70.13
2018-12-31T19:12:41.162Z,71.99
2018-12-31T19:15:10.237Z,71.98
2018-12-31T19:17:43.528Z,71.17
2018-12-31T19:20:10.324Z,69.69
2018-12-31T19:22:39.760Z,70.45
2018-12-31T19:25:09.124Z,71.46
2018-12-31T19:27:38.377Z,70.44
2018-12-31T19:30:12.473Z,71.19
2018-12-31T19:32:41.612Z,72.64
2018-12-31T19:35:13.526Z,73.10
2018-12-31T19:37:45.455Z,71.67
2018-12-31T19:40:17.249Z,73.72
2018-12-31T19:42:48.181Z,74.58
2018-12-31T19:45:18.637Z,75.64
2018-12-31T19:47:50.710Z,75.95
2018-12-31T19:50:19.939Z,74.86
2018-12-31T19:52:52.064Z,76.10
2018-12-31T19:55:21.180Z,72.76
2018-12-31T19:57:50.671Z,72.97
2018-12-31T20:00:21.648Z,70.46
2018-12-31T20:02:50.778Z,73.49
2018-12-31T20:05:23.084Z,71.15
2018-12-31T20:07:58.887Z,69.51
2018-12-31T20:10:30.701Z,69.01
2018-12-31T20:12:59.788Z,70.51
2018-12-31T20:15:30.102Z,70.27
2018-12-31T20:18:01.194Z,70.88
2018-12-31T20:20:31.648Z,70.61
2018-12-31T20:23:03.819Z,71.94
2018-12-31T20:25:33.224Z,71.39
2018-12-31T20:28:03.431Z,71.63
2018-12-31T20:30:34.356Z,70.02
2018-12-31T20:33:03.480Z,70.24
2018-12-31T20:35:32.559Z,72.46
2018-12-31T20:38:04.226Z,70.53
2018-12-31T20:40:33.495Z,74.21
2018-12-31T20:43:03.252Z,75.03
2018-12-31T20:45:38.408Z,73.08
2018-12-31T20:48:08.858Z,71.15
2018-12-31T20:50:39.427Z,71.17
2018-12-31T20:53:08.535Z,72.22
2018-12-31T20:55:37.647Z,73.11
2018-12-31T20:58:07.083Z,73.29
2018-12-31T21:00:36.193Z,72.68
2018-12-31T21:03:07.735Z,72.71
2018-12-31T21:05:36.849Z,73.37
2018-12-31T21:08:07.450Z,74.28
2018-12-31T21:10:37.034Z,74.62
2018-12-31T21:13:06.126Z,74.20
2018-12-31T21:15:39.331Z,71.56
2018-12-31T21:18:10.537Z,71.04
2018-12-31T21:20:46.973Z,72.58
2018-12-31T21:23:19.250Z,73.20
2018-12-31T21:25:48.398Z,72.58
2018-12-31T21:28:19.456Z,71.63
2018-12-31T21:30:48.654Z,71.17
2018-12-31T21:33:18.733Z,70.43
2018-12-31T21:35:50.849Z,72.55
2018-12-31T21:38:20.151Z,72.63
2018-12-31T21:40:51.640Z,74.84
2018-12-31T21:43:21.123Z,76.49
2018-12-31T21:45:53.494Z,77.22
2018-12-31T21:48:22.619Z,77.08
2018-12-31T21:50:51.803Z,77.40
2018-12-31T21:53:21.016Z,77.07
2018-12-31T21:55:53.064Z,75.82
2018-12-31T21:58:22.166Z,74.39
2018-12-31T22:00:53.031Z,74.56
2018-12-31T22:03:22.653Z,76.45
2018-12-31T22:05:51.785Z,77.44
2018-12-31T22:08:27.555Z,76.83
2018-12-31T22:10:58.609Z,77.78
2018-12-31T22:13:27.708Z,77.20
2018-12-31T22:15:56.896Z,76.04
2018-12-31T22:18:27.091Z,75.74
2018-12-31T22:20:58.106Z,74.73
2018-12-31T22:23:27.636Z,75.04
2018-12-31T22:25:58.809Z,76.68
2018-12-31T22:28:28.867Z,76.64
2018-12-31T22:30:59.355Z,74.94
2018-12-31T22:33:31.610Z,73.74
2018-12-31T22:36:00.736Z,76.37
2018-12-31T22:38:36.016Z,75.29
2018-12-31T22:41:05.236Z,75.12
2018-12-31T22:43:35.443Z,75.99
2018-12-31T22:46:04.547Z,73.30
2018-12-31T22:48:36.475Z,72.32
2018-12-31T22:51:05.536Z,71.37
2018-12-31T22:53:36.438Z,70.44
2018-12-31T22:56:05.883Z,73.60
2018-12-31T22:58:34.972Z,73.32
2018-12-31T23:01:04.743Z,72.60
2018-12-31T23:03:34.395Z,73.49
2018-12-31T23:06:03.807Z,72.64
2018-12-31T23:08:34.138Z,71.86
2018-12-31T23:11:07.418Z,71.34
2018-12-31T23:13:42.902Z,71.69
2018-12-31T23:16:17.275Z,72.67
2018-12-31T23:18:47.918Z,73.35
2018-12-31T23:21:17.123Z,73.34
2018-12-31T23:23:46.240Z,74.37
2018-12-31T23:26:16.148Z,74.30
2018-12-31T23:28:52.309Z,74.03
2018-12-31T23:31:16.411Z,73.18
2018-12-31T23:33:47.350Z,71.64
2018-12-31T23:36:16.501Z,70.98
2018-12-31T23:38:45.799Z,71.75
2018-12-31T23:41:16.115Z,72.04
2018-12-31T23:43:45.378Z,70.63
2018-12-31T23:46:21.617Z,70.62
2018-12-31T23:48:50.769Z,70.75
2018-12-31T23:51:27.791Z,70.83
2018-12-31T23:53:56.912Z,72.19
2018-12-31T23:56:26.018Z,71.35
2018-12-31T23:58:55.384Z,70.72
